Time;durP1;ratioP1;P1;durP2;ratioP2;P2;SDS_P1;SDS_P2;PMS_P1;PMS_P2;Temp;Humidity;BMP_temperature;BMP_pressure;BME280_temperature;BME280_humidity;BME280_pressure;Samples;Min_cycle;Max_cycle;Signal;HPM_P1;HPM_P2
2022/11/14 00:04:48;;;;;;;5.07;4.55;;;;;;;19.67;57.96;97382.50;10521781;28;20052;-59
2022/11/14 00:10:26;;;;;;;4.70;4.30;;;;;;;19.66;57.97;97370.91;10494647;28;20044;-59
2022/11/14 00:16:04;;;;;;;4.55;4.15;;;;;;;19.65;57.97;97369.28;10533419;28;20037;-59
2022/11/14 00:21:42;;;;;;;4.72;4.20;;;;;;;19.65;58.04;97369.28;10527233;28;20052;-59
2022/11/14 00:27:20;;;;;;;4.78;4.32;;;;;;;19.64;57.91;97358.78;10497252;28;20049;-59
2022/11/14 00:32:59;;;;;;;4.70;4.10;;;;;;;19.64;58.00;97350.66;10514487;28;20047;-59
2022/11/14 00:38:37;;;;;;;;;;;;;;;19.62;58.17;97350.19;10526306;28;20063;-59
2022/11/14 00:44:16;;;;;;;4.97;4.30;;;;;;;19.62;57.95;97342.06;10514183;28;19921;-59
2022/11/14 00:49:54;;;;;;;4.07;3.67;;;;;;;19.61;58.01;97340.50;10543102;28;20052;-58
2022/11/14 00:55:32;;;;;;;4.28;3.88;;;;;;;19.59;57.95;97340.81;10508849;28;20051;-59
2022/11/14 01:01:10;;;;;;;4.50;4.10;;;;;;;19.59;58.05;97335.41;10510511;28;20037;-59
2022/11/14 01:06:48;;;;;;;4.10;3.70;;;;;;;19.58;57.93;97330.28;10516401;28;20056;-59
2022/11/14 01:12:27;;;;;;;4.22;3.67;;;;;;;19.56;57.96;97317.91;10499231;28;20059;-59
2022/11/14 01:18:05;;;;;;;5.27;3.70;;;;;;;19.55;58.02;97308.19;10506790;28;20044;-59
2022/11/14 01:23:43;;;;;;;;;;;;;;;19.54;58.13;97311.19;10520706;28;20294;-56
2022/11/14 01:29:22;;;;;;;4.17;3.60;;;;;;;19.53;57.97;97296.91;10508259;28;19920;-59
2022/11/14 01:35:00;;;;;;;4.00;3.60;;;;;;;19.52;57.99;97284.50;10506205;28;20289;-58
2022/11/14 01:40:43;;;;;;;3.97;3.58;;;;;;;19.51;58.13;97277.50;10506328;28;20106;-59
2022/11/14 01:46:25;;;;;;;3.53;3.22;;;;;;;19.51;58.17;97276.72;10498787;28;20051;-59
2022/11/14 01:52:07;;;;;;;3.70;3.40;;;;;;;19.50;58.07;97280.50;10487247;28;20063;-59
2022/11/14 01:57:47;;;;;;;3.92;3.50;;;;;;;19.49;58.03;97273.53;10535508;28;20057;-59
2022/11/14 02:03:25;;;;;;;4.13;3.72;;;;;;;19.47;58.13;97281.16;10503460;28;20063;-44
2022/11/14 02:09:05;;;;;;;3.92;3.63;;;;;;;19.46;58.13;97285.72;10532540;28;20445;-44
2022/11/14 02:14:45;;;;;;;3.42;3.13;;;;;;;19.45;58.15;97276.03;10530362;28;20040;-44
2022/11/14 02:20:31;;;;;;;4.28;3.55;;;;;;;19.45;58.03;97262.53;10528109;28;20056;-44
2022/11/14 02:26:10;;;;;;;3.42;3.13;;;;;;;19.42;58.16;97268.56;10527167;28;20056;-44
2022/11/14 02:31:48;;;;;;;3.95;3.28;;;;;;;19.43;58.06;97266.66;10523117;28;20051;-44
2022/11/14 02:37:26;;;;;;;3.85;3.42;;;;;;;19.41;58.13;97253.47;10533919;28;20063;-44
2022/11/14 02:43:05;;;;;;;3.67;3.38;;;;;;;19.40;58.18;97251.84;10505484;28;20049;-45
2022/11/14 02:48:43;;;;;;;3.60;3.30;;;;;;;19.39;58.26;97235.97;10521818;28;20106;-45
2022/11/14 02:54:21;;;;;;;3.28;3.00;;;;;;;19.38;58.25;97224.34;10490609;28;20056;-43
2022/11/14 02:59:59;;;;;;;3.40;3.15;;;;;;;19.38;58.25;97228.97;10524863;28;20049;-45
2022/11/14 03:05:37;;;;;;;3.43;3.13;;;;;;;19.35;58.35;97208.78;10513162;28;20044;-43
2022/11/14 03:11:16;;;;;;;4.20;3.17;;;;;;;19.35;58.38;97193.38;10526912;28;20290;-43
2022/11/14 03:16:54;;;;;;;3.40;3.10;;;;;;;19.34;58.51;97185.56;10523745;28;20049;-45
2022/11/14 03:22:32;;;;;;;3.30;3.00;;;;;;;19.33;58.42;97189.41;10517418;28;20059;-44
2022/11/14 03:28:10;;;;;;;3.55;3.25;;;;;;;19.33;58.45;97184.00;10504348;28;20071;-44
2022/11/14 03:33:49;;;;;;;3.42;3.13;;;;;;;19.32;58.45;97187.78;10510825;28;20067;-44
2022/11/14 03:39:27;;;;;;;3.53;3.22;;;;;;;19.31;58.33;97184.31;10523950;28;20519;-47
2022/11/14 03:45:05;;;;;;;3.22;2.92;;;;;;;19.29;58.58;97193.84;10496474;28;20053;-45
2022/11/14 03:50:44;;;;;;;3.20;2.90;;;;;;;19.28;58.39;97192.22;10503784;28;20052;-45
2022/11/14 03:56:22;;;;;;;3.22;2.92;;;;;;;19.27;58.34;97196.84;10528575;28;20036;-44
2022/11/14 04:02:00;;;;;;;3.63;3.33;;;;;;;19.26;58.37;97194.44;10508091;28;20299;-44
2022/11/14 04:07:38;;;;;;;3.10;2.80;;;;;;;19.26;58.34;97197.94;10529735;28;20056;-46
2022/11/14 04:13:17;;;;;;;3.40;3.10;;;;;;;19.24;58.34;97185.84;10489166;28;20044;-44
2022/11/14 04:18:55;;;;;;;3.10;2.85;;;;;;;19.24;58.45;97181.25;10523776;28;20359;-43
2022/11/14 04:24:33;;;;;;;3.03;2.80;;;;;;;19.22;58.42;97159.16;10527127;28;20062;-46
2022/11/14 04:30:12;;;;;;;2.95;2.72;;;;;;;19.22;58.45;97158.38;10498971;28;20055;-44
2022/11/14 04:35:50;;;;;;;3.37;3.07;;;;;;;19.20;58.35;97164.06;10530816;28;20564;-45
2022/11/14 04:41:28;;;;;;;3.13;2.90;;;;;;;19.20;58.45;97157.88;10534220;28;20052;-44
2022/11/14 04:47:06;;;;;;;3.30;3.00;;;;;;;19.17;58.37;97170.91;10515456;28;20063;-44
2022/11/14 04:52:44;;;;;;;3.13;2.88;;;;;;;19.16;58.22;97169.31;10475637;28;20071;-44
2022/11/14 04:58:23;;;;;;;3.00;2.80;;;;;;;19.16;58.19;97163.13;10495226;28;20400;-43
2022/11/14 05:04:02;;;;;;;3.05;2.83;;;;;;;19.15;58.15;97156.09;10484671;28;20064;-44
2022/11/14 05:09:41;;;;;;;3.00;2.80;;;;;;;19.14;58.46;97159.94;10507561;28;20051;-44
2022/11/14 05:15:19;;;;;;;3.75;3.20;;;;;;;19.14;58.79;97168.81;10488501;28;20056;-44
2022/11/14 05:20:59;;;;;;;2.97;2.72;;;;;;;19.13;59.12;97140.25;10507375;28;20419;-45
2022/11/14 05:26:38;;;;;;;3.22;2.92;;;;;;;19.12;58.89;97138.63;10529974;28;20063;-45
2022/11/14 05:32:16;;;;;;;3.38;3.08;;;;;;;19.13;58.74;97132.13;10538851;28;20040;-43
2022/11/14 05:37:55;;;;;;;3.50;3.20;;;;;;;19.12;58.67;97135.94;10533386;28;20051;-44
2022/11/14 05:43:33;;;;;;;3.45;2.97;;;;;;;19.15;58.68;97137.19;10520116;28;20098;-44
2022/11/14 05:49:11;;;;;;;3.22;2.97;;;;;;;19.15;58.69;97150.69;10527334;28;20048;-45
2022/11/14 05:54:50;;;;;;;3.50;3.20;;;;;;;19.15;58.69;97162.31;10530844;28;20048;-43
2022/11/14 06:00:28;;;;;;;3.72;3.25;;;;;;;19.16;58.69;97168.50;10519561;28;20048;-44
2022/11/14 06:06:08;;;;;;;4.68;3.30;;;;;;;19.17;58.36;97176.31;10516738;28;20488;-46
2022/11/14 06:11:47;;;;;;;5.97;3.60;;;;;;;19.17;58.35;97186.31;10537141;28;20067;-45
2022/11/14 06:17:25;;;;;;;6.85;4.00;;;;;;;19.19;58.32;97200.31;10527672;28;20055;-44
2022/11/14 06:23:03;;;;;;;5.13;3.67;;;;;;;19.20;58.48;97201.09;10500232;28;20053;-44
2022/11/14 06:28:41;;;;;;;8.30;4.72;;;;;;;19.21;58.39;97197.28;10507729;28;20044;-44
2022/11/14 06:34:19;;;;;;;8.00;4.10;;;;;;;19.24;58.42;97185.84;10529981;28;20056;-44
2022/11/14 06:39:57;;;;;;;7.90;4.33;;;;;;;19.24;58.24;97202.06;10483776;28;20411;-45
2022/11/14 06:45:36;;;;;;;7.85;4.30;;;;;;;19.25;58.39;97214.44;10502961;28;20657;-44
2022/11/14 06:51:15;;;;;;;11.63;4.00;;;;;;;19.26;58.28;97216.06;10511682;28;20048;-43
2022/11/14 06:56:53;;;;;;;7.97;4.20;;;;;;;19.28;58.35;97214.63;10532817;28;20291;-44
2022/11/14 07:02:32;;;;;;;5.82;4.13;;;;;;;19.30;58.23;97208.91;10539975;28;20044;-43
2022/11/14 07:08:10;;;;;;;7.25;4.35;;;;;;;19.32;58.18;97198.59;10518570;28;20416;-44
2022/11/14 07:13:49;;;;;;;6.68;4.10;;;;;;;19.32;58.26;97193.97;10507921;28;20083;-45
2022/11/14 07:19:28;;;;;;;6.07;4.00;;;;;;;19.35;58.29;97200.69;10528235;28;20052;-44
2022/11/14 07:25:06;;;;;;;9.02;4.70;;;;;;;19.36;58.24;97188.75;10529729;28;20052;-48
2022/11/14 07:30:44;;;;;;;7.63;4.07;;;;;;;19.38;58.33;97194.63;10519739;28;20059;-43
2022/11/14 07:36:23;;;;;;;6.47;4.10;;;;;;;19.39;58.40;97204.34;10518320;28;20573;-45
2022/11/14 07:42:01;;;;;;;6.57;4.13;;;;;;;19.41;58.27;97202.13;10497312;28;20056;-47
2022/11/14 07:47:39;;;;;;;4.05;3.60;;;;;;;19.43;58.23;97199.91;10527111;28;20059;-44
2022/11/14 07:53:18;;;;;;;5.13;3.88;;;;;;;19.46;58.21;97195.78;10539066;28;20048;-48
2022/11/14 07:58:57;;;;;;;7.95;4.18;;;;;;;19.47;58.38;97200.09;10497319;28;20052;-45
2022/11/14 08:04:35;;;;;;;;;;;;;;;19.49;58.28;97203.28;10528116;28;20411;-45
2022/11/14 08:10:14;;;;;;;5.60;3.70;;;;;;;19.52;58.19;97208.03;10526681;28;20410;-45
2022/11/14 08:15:52;;;;;;;;;;;;;;;19.53;58.37;97199.63;10522958;28;20048;-44
2022/11/14 08:21:30;;;;;;;5.38;3.63;;;;;;;19.54;58.31;97212.03;10496226;28;19921;-45
2022/11/14 08:27:09;;;;;;;5.70;3.90;;;;;;;19.56;58.38;97207.09;10515742;28;20063;-45
2022/11/14 08:32:47;;;;;;;11.45;4.90;;;;;;;19.58;58.13;97195.97;10502858;28;20064;-44
2022/11/14 08:38:25;;;;;;;10.18;4.30;;;;;;;19.61;57.94;97189.16;10509701;28;20055;-44
2022/11/14 08:44:04;;;;;;;9.18;4.47;;;;;;;19.62;58.12;97196.13;10523424;28;20043;-44
2022/11/14 08:49:42;;;;;;;11.85;5.05;;;;;;;19.64;57.98;97180.41;10545890;28;20059;-45
2022/11/14 08:55:20;;;;;;;10.90;5.00;;;;;;;19.66;58.03;97184.41;10508727;28;20052;-45
2022/11/14 09:01:05;;;;;;;10.63;4.97;;;;;;;19.68;57.70;97189.47;10544050;28;20040;-46
2022/11/14 09:06:45;;;;;;;9.05;4.68;;;;;;;19.69;57.64;97180.25;10548159;28;20384;-46
2022/11/14 09:12:23;;;;;;;10.98;4.63;;;;;;;19.70;57.65;97176.47;10538768;28;20051;-47
2022/11/14 09:18:01;;;;;;;12.10;5.35;;;;;;;19.71;57.74;97165.34;10518975;28;20051;-46
2022/11/14 09:23:40;;;;;;;11.52;5.53;;;;;;;19.73;57.80;97159.63;10507964;28;20064;-47
2022/11/14 09:29:18;;;;;;;7.97;4.22;;;;;;;19.74;57.85;97155.81;10500236;28;20411;-45
2022/11/14 09:34:56;;;;;;;13.35;5.43;;;;;;;19.75;57.59;97155.47;10505653;28;20169;-45
2022/11/14 09:41:10;;;;;;;8.88;4.65;;;;;;;19.78;57.65;97156.78;10550529;28;20052;-47
2022/11/14 09:46:55;;;;;;;11.68;5.53;;;;;;;19.80;57.58;97153.72;10518782;28;20055;-48
2022/11/14 09:52:36;;;;;;;9.55;4.82;;;;;;;19.82;57.63;97156.94;10531767;28;20060;-45
2022/11/14 09:58:18;;;;;;;9.80;4.90;;;;;;;19.83;57.65;97151.19;10520783;28;20055;-44
2022/11/14 10:04:16;;;;;;;7.22;4.40;;;;;;;19.86;57.93;97142.47;10543128;28;20082;-43
2022/11/14 10:09:57;;;;;;;8.20;4.50;;;;;;;19.88;57.96;97136.75;10523803;28;20133;-44
2022/11/14 10:15:42;;;;;;;7.70;4.40;;;;;;;19.89;57.93;97133.69;10508139;28;20045;-44
2022/11/14 10:21:39;;;;;;;8.40;3.97;;;;;;;19.90;57.87;97138.00;10523626;28;20056;-47
2022/11/14 10:27:27;;;;;;;7.70;4.38;;;;;;;19.91;57.86;97128.75;10499818;28;20053;-45
2022/11/14 10:33:43;;;;;;;8.77;4.20;;;;;;;19.93;57.97;97120.34;10500237;28;20044;-44
2022/11/14 10:39:34;;;;;;;6.75;3.92;;;;;;;19.93;57.89;97121.16;10539223;28;20048;-44
2022/11/14 10:45:20;;;;;;;7.32;4.10;;;;;;;19.95;57.90;97116.22;10501877;28;20108;-47
2022/11/14 10:51:07;;;;;;;6.25;3.95;;;;;;;19.96;57.87;97111.59;10523704;28;20060;-43
2022/11/14 10:56:50;;;;;;;6.28;4.00;;;;;;;19.98;57.87;97105.88;10517989;28;20492;-45
2022/11/14 11:02:46;;;;;;;7.55;4.10;;;;;;;19.99;57.83;97102.84;10540223;28;20061;-45
2022/11/14 11:14:22;;;;;;;7.78;3.97;;;;;;;20.02;57.56;97096.03;10533379;28;20093;-44
2022/11/14 11:20:24;;;;;;;6.18;3.63;;;;;;;20.03;57.60;97092.19;10520101;28;20044;-46
2022/11/14 11:26:09;;;;;;;5.55;3.30;;;;;;;20.03;57.49;97084.06;10514424;28;20101;-46
2022/11/14 11:31:57;;;;;;;7.13;3.88;;;;;;;20.05;57.47;97076.44;10484922;28;20577;-47
2022/11/14 11:37:53;;;;;;;8.30;4.10;;;;;;;20.06;57.44;97075.31;10516112;28;20047;-47
2022/11/14 11:43:31;;;;;;;5.63;3.78;;;;;;;20.07;57.42;97057.97;10538182;28;20040;-44
2022/11/14 11:49:34;;;;;;;5.80;3.65;;;;;;;20.08;57.35;97059.56;10533669;28;20044;-46
2022/11/14 11:55:19;;;;;;;5.78;3.55;;;;;;;20.09;57.24;97053.03;10509564;28;20040;-44
2022/11/14 12:00:58;;;;;;;6.47;3.35;;;;;;;20.09;57.20;97053.84;10500583;28;20063;-47
2022/11/14 12:06:54;;;;;;;7.30;3.78;;;;;;;20.11;57.22;97069.72;10526954;28;20085;-45
2022/11/14 12:12:48;;;;;;;5.10;3.50;;;;;;;20.10;57.18;97066.25;10498102;28;20057;-44
2022/11/14 12:18:45;;;;;;;5.93;3.47;;;;;;;20.12;57.30;97060.53;10509386;28;20049;-46
2022/11/14 12:24:56;;;;;;;3.65;2.97;;;;;;;20.15;57.19;97068.78;10526245;28;20068;-44
2022/11/14 12:30:36;;;;;;;4.13;3.10;;;;;;;20.17;57.13;97075.78;10494305;28;20056;-44
2022/11/14 12:36:14;;;;;;;4.60;2.90;;;;;;;20.18;57.13;97067.34;10521994;28;20071;-48
2022/11/14 12:42:03;;;;;;;4.15;3.25;;;;;;;20.20;56.99;97067.81;10515464;28;20051;-44
2022/11/14 12:48:21;;;;;;;4.60;2.92;;;;;;;20.21;56.90;97055.06;10496059;28;20132;-45
2022/11/14 12:54:01;;;;;;;4.10;3.00;;;;;;;20.22;56.93;97046.66;10531500;28;20037;-46
2022/11/14 12:59:49;;;;;;;4.57;3.00;;;;;;;20.23;56.77;97047.44;10510412;28;20052;-47
2022/11/14 13:05:58;;;;;;;4.77;3.10;;;;;;;20.22;56.81;97051.28;10518553;28;20052;-48
2022/11/14 13:23:40;;;;;;;3.73;2.90;;;;;;;20.21;56.72;97050.47;10507622;28;20403;-45
2022/11/14 13:29:40;;;;;;;3.95;2.90;;;;;;;20.19;56.67;97025.66;10504503;28;20052;-43
2022/11/14 13:35:44;;;;;;;4.15;2.95;;;;;;;20.18;56.55;97013.25;10534534;28;20063;-46
2022/11/14 13:41:45;;;;;;;3.72;3.05;;;;;;;20.18;56.56;97024.06;10520580;28;20052;-47
2022/11/14 13:47:49;;;;;;;3.42;2.83;;;;;;;20.17;56.59;97019.78;10523299;28;20052;-47
2022/11/14 13:53:29;;;;;;;3.63;2.78;;;;;;;20.16;56.52;97020.88;10522800;28;20067;-45
2022/11/14 13:59:36;;;;;;;3.80;2.85;;;;;;;20.16;56.54;97018.19;10524506;28;20101;-46
2022/11/14 14:05:30;;;;;;;3.15;2.85;;;;;;;20.14;56.51;97010.38;10520884;28;20043;-44
2022/11/14 14:11:30;;;;;;;3.65;2.67;;;;;;;20.14;56.42;97015.00;10513313;28;20056;-43
2022/11/14 14:17:37;;;;;;;3.25;2.85;;;;;;;20.12;56.44;97011.84;10518083;28;20052;-47
2022/11/14 14:23:33;;;;;;;3.05;2.53;;;;;;;20.13;56.34;97010.69;10518407;28;20121;-43
2022/11/14 14:29:22;;;;;;;3.08;2.70;;;;;;;20.10;56.41;97016.78;10537154;28;20055;-49
2022/11/14 14:35:19;;;;;;;3.75;3.17;;;;;;;20.09;56.38;97007.06;10520019;28;20067;-47
2022/11/14 14:40:58;;;;;;;3.40;2.70;;;;;;;20.09;56.21;97009.75;10504888;28;20049;-48
2022/11/14 14:46:36;;;;;;;4.13;3.10;;;;;;;20.07;56.31;97012.00;10501135;28;20525;-46
2022/11/14 14:52:28;;;;;;;4.03;2.60;;;;;;;20.06;56.32;97018.53;10509012;28;20522;-44
2022/11/14 14:58:22;;;;;;;3.38;2.83;;;;;;;20.04;56.35;97013.44;10539774;28;20033;-44
2022/11/14 15:04:05;;;;;;;3.60;2.90;;;;;;;20.04;56.11;97008.03;10516925;28;20056;-45
2022/11/14 15:09:55;;;;;;;4.25;2.50;;;;;;;20.04;56.24;97008.03;10497259;28;20541;-47
2022/11/14 15:15:33;;;;;;;3.25;2.63;;;;;;;20.02;56.25;97002.16;10536148;28;20060;-47
2022/11/14 15:21:23;;;;;;;3.00;2.70;;;;;;;20.02;56.16;96990.56;10512286;28;20105;-44
2022/11/14 15:27:10;;;;;;;3.13;2.67;;;;;;;20.00;56.23;96990.06;10512615;28;20049;-44
2022/11/14 15:32:50;;;;;;;3.58;2.80;;;;;;;19.98;56.25;96998.50;10511574;28;20577;-45
2022/11/14 15:38:28;;;;;;;3.45;2.80;;;;;;;19.99;56.20;96999.28;10533844;28;20060;-45
2022/11/14 15:44:28;;;;;;;3.08;2.70;;;;;;;19.97;56.10;97006.94;10506493;28;20404;-45
2022/11/14 15:50:31;;;;;;;3.15;2.60;;;;;;;19.97;56.10;97006.94;10527365;28;20044;-44
2022/11/14 15:56:12;;;;;;;2.95;2.65;;;;;;;19.93;56.02;96999.47;10535160;28;20043;-47
2022/11/14 16:01:56;;;;;;;4.40;4.00;;;;;;;19.92;55.37;97000.59;10534506;28;20041;-43
2022/11/14 16:07:34;;;;;;;5.03;4.05;;;;;;;19.92;55.56;96999.81;10509747;28;20052;-43
2022/11/14 16:13:12;;;;;;;5.28;3.58;;;;;;;19.92;55.69;97021.44;10532621;28;20040;-43
2022/11/14 16:18:51;;;;;;;6.07;3.42;;;;;;;19.90;55.90;97010.94;10516321;28;20056;-44
2022/11/14 16:24:30;;;;;;;3.97;3.47;;;;;;;19.91;56.14;97034.13;10500656;28;20064;-46
2022/11/14 16:30:10;;;;;;;3.78;3.42;;;;;;;19.90;56.44;97024.44;10501577;28;20051;-44
2022/11/14 16:35:48;;;;;;;3.90;3.58;;;;;;;19.89;56.36;97006.63;10520922;28;20064;-44
2022/11/14 16:41:27;;;;;;;4.97;3.60;;;;;;;19.90;56.43;97019.03;10504658;28;20059;-44
2022/11/14 16:47:05;;;;;;;;;;;;;;;19.89;56.28;97014.72;10506301;28;20048;-47
2022/11/14 16:52:43;;;;;;;5.20;3.92;;;;;;;19.89;56.21;97017.44;10535599;28;19924;-48
2022/11/14 16:58:22;;;;;;;4.07;3.65;;;;;;;19.90;56.39;97018.25;10518200;28;20049;-47
2022/11/14 17:04:00;;;;;;;;;;;;;;;19.89;56.20;97014.72;10529929;28;20040;-47
2022/11/14 17:09:38;;;;;;;5.90;3.80;;;;;;;19.91;56.32;97019.81;10519168;28;19929;-48
2022/11/14 17:15:17;;;;;;;;;;;;;;;19.92;56.32;97013.31;10522753;28;20045;-48
2022/11/14 17:20:55;;;;;;;4.85;3.95;;;;;;;19.91;56.37;96998.97;10521914;28;19924;-49
2022/11/14 17:26:35;;;;;;;5.30;3.83;;;;;;;19.91;56.33;97000.91;10519593;28;20047;-49
2022/11/14 17:32:13;;;;;;;4.72;4.00;;;;;;;19.91;56.41;97003.59;10530870;28;20063;-45
2022/11/14 17:37:51;;;;;;;4.90;4.15;;;;;;;19.92;56.38;97008.69;10514675;28;20051;-47
2022/11/14 17:43:36;;;;;;;4.97;4.28;;;;;;;19.93;56.24;97009.47;10510389;28;20457;-48
2022/11/14 17:49:14;;;;;;;5.07;4.00;;;;;;;19.93;56.22;97004.88;10506834;28;20498;-45
2022/11/14 17:54:53;;;;;;;4.63;4.10;;;;;;;19.94;56.24;97014.56;10530329;28;20397;-50
2022/11/14 18:00:31;;;;;;;4.30;3.90;;;;;;;19.94;56.34;97013.78;10535664;28;20055;-46
2022/11/14 18:06:12;;;;;;;4.72;4.32;;;;;;;19.95;56.41;97027.00;10532356;28;20048;-47
2022/11/14 18:11:50;;;;;;;5.20;4.13;;;;;;;19.95;56.46;97021.59;10508665;28;20082;-51
2022/11/14 18:17:30;;;;;;;4.30;3.90;;;;;;;19.95;56.53;97027.00;10509346;28;20063;-54
2022/11/14 18:23:09;;;;;;;4.63;3.83;;;;;;;19.97;56.28;97034.75;10504283;28;20424;-47
2022/11/14 18:28:47;;;;;;;4.20;3.80;;;;;;;19.96;56.39;97035.91;10547717;28;20040;-51
2022/11/14 18:34:25;;;;;;;5.75;3.90;;;;;;;19.95;56.27;97037.00;10527388;28;20052;-48
2022/11/14 18:40:04;;;;;;;4.35;3.92;;;;;;;19.94;56.22;97030.78;10519687;28;20446;-49
2022/11/14 18:45:42;;;;;;;4.28;3.88;;;;;;;19.94;56.23;97032.72;10513577;28;20041;-48
2022/11/14 18:51:23;;;;;;;4.47;4.00;;;;;;;19.94;56.24;97021.91;10504268;28;20105;-50
2022/11/14 18:57:01;;;;;;;6.15;4.13;;;;;;;19.93;56.07;97006.78;10493114;28;20044;-47
2022/11/14 19:02:39;;;;;;;4.40;3.90;;;;;;;19.93;56.13;97020.28;10523957;28;20457;-45
2022/11/14 19:08:17;;;;;;;4.63;4.10;;;;;;;19.93;56.09;97018.41;10528209;28;20282;-47
2022/11/14 19:13:57;;;;;;;4.72;3.90;;;;;;;19.91;56.06;97023.31;10512138;28;20090;-49
2022/11/14 19:19:35;;;;;;;4.18;3.80;;;;;;;19.91;56.22;97015.19;10512705;28;20048;-49
2022/11/14 19:25:13;;;;;;;4.38;3.97;;;;;;;19.91;56.14;97011.72;10524336;28;20060;-48
2022/11/14 19:30:52;;;;;;;4.38;3.78;;;;;;;19.91;56.10;97017.91;10500023;28;20047;-49
2022/11/14 19:36:30;;;;;;;5.85;4.22;;;;;;;19.90;56.21;97015.53;10489263;28;20056;-48
2022/11/14 19:42:08;;;;;;;5.82;4.35;;;;;;;19.88;56.04;97028.59;10522982;28;20063;-44
2022/11/14 19:47:46;;;;;;;6.05;3.97;;;;;;;19.88;56.07;97021.28;10528114;28;20048;-48
2022/11/14 19:53:25;;;;;;;5.18;3.72;;;;;;;19.88;56.12;97021.28;10519876;28;20056;-57
2022/11/14 19:59:04;;;;;;;5.40;3.67;;;;;;;19.88;56.33;97015.84;10505648;28;20049;-57
2022/11/14 20:04:45;;;;;;;5.82;3.70;;;;;;;19.88;56.41;97021.28;10505460;28;20060;-59
2022/11/14 20:10:23;;;;;;;4.72;3.45;;;;;;;19.90;56.54;97023.66;10506444;28;20052;-60
2022/11/14 20:16:12;;;;;;;6.82;3.70;;;;;;;19.91;56.37;97017.13;10523857;28;20100;-56
2022/11/14 20:21:52;;;;;;;3.92;3.50;;;;;;;19.90;56.39;96997.41;10511755;28;20517;-56
2022/11/14 20:27:30;;;;;;;5.43;3.67;;;;;;;19.90;56.36;96996.63;10508780;28;20554;-56
2022/11/14 20:33:09;;;;;;;4.05;3.63;;;;;;;19.90;56.39;96994.69;10496709;28;20052;-55
2022/11/14 20:38:47;;;;;;;3.75;3.35;;;;;;;19.90;56.09;96993.91;10512992;28;20056;-45
2022/11/14 20:44:26;;;;;;;6.72;3.72;;;;;;;19.90;56.07;96992.00;10531508;28;20048;-45
2022/11/14 20:50:04;;;;;;;4.28;3.45;;;;;;;19.89;56.01;96979.59;10511688;28;20403;-49
2022/11/14 20:55:43;;;;;;;4.47;3.88;;;;;;;19.90;56.01;96983.88;10525238;28;20055;-47
2022/11/14 21:01:21;;;;;;;6.05;3.75;;;;;;;19.90;55.96;96983.88;10504437;28;20044;-44
2022/11/14 21:06:59;;;;;;;4.13;3.72;;;;;;;19.90;55.87;96964.19;10502187;28;20079;-45
2022/11/14 21:12:38;;;;;;;3.92;3.47;;;;;;;19.91;55.79;96950.31;10502182;28;20495;-46
2022/11/14 21:18:16;;;;;;;4.75;3.65;;;;;;;19.91;55.73;96960.34;10517890;28;20479;-44
2022/11/14 21:23:55;;;;;;;4.25;3.85;;;;;;;19.91;55.77;96954.94;10500618;28;20153;-44
2022/11/14 21:29:34;;;;;;;4.05;3.70;;;;;;;19.90;55.71;96959.56;10509810;28;20048;-44
2022/11/14 21:35:14;;;;;;;4.25;3.85;;;;;;;19.91;55.71;96954.94;10523073;28;20121;-44
2022/11/14 21:40:53;;;;;;;4.20;3.80;;;;;;;19.90;55.45;96954.16;10517287;28;20118;-44
2022/11/14 21:46:32;;;;;;;4.38;3.72;;;;;;;19.90;55.44;96958.78;10528990;28;20433;-46
2022/11/14 21:52:10;;;;;;;5.25;4.07;;;;;;;19.89;55.35;96947.13;10507693;28;20495;-43
2022/11/14 21:57:53;;;;;;;6.32;3.80;;;;;;;19.89;55.40;96944.44;10528329;28;20056;-44
2022/11/14 22:09:29;;;;;;;3.97;3.65;;;;;;;19.87;55.40;96946.66;10529058;28;20057;-49
2022/11/14 22:15:07;;;;;;;;;;;;;;;19.87;55.20;96943.97;10531814;28;20049;-47
2022/11/14 22:21:03;;;;;;;4.45;4.05;;;;;;;19.87;55.30;96952.06;10526951;28;19920;-46
2022/11/14 22:26:41;;;;;;;4.30;3.90;;;;;;;19.86;55.16;96953.22;10505552;28;20055;-47
2022/11/14 22:32:20;;;;;;;4.22;3.83;;;;;;;19.85;55.24;96951.59;10553160;28;20093;-46
2022/11/14 22:37:58;;;;;;;4.13;3.83;;;;;;;19.83;55.26;96943.03;10519117;28;20040;-47
2022/11/14 22:43:37;;;;;;;4.38;3.97;;;;;;;19.83;55.26;96948.44;10515341;28;20063;-46
2022/11/14 22:49:15;;;;;;;6.15;4.10;;;;;;;19.82;55.20;96944.16;10526060;28;20055;-48
2022/11/14 22:54:53;;;;;;;4.75;4.15;;;;;;;19.82;55.15;96941.44;10518740;28;20059;-45
2022/11/14 23:00:34;;;;;;;4.47;4.07;;;;;;;19.82;55.00;96935.25;10521292;28;20048;-44
2022/11/14 23:06:44;;;;;;;4.13;3.72;;;;;;;19.79;55.02;96931.28;10515403;28;20063;-46
2022/11/14 23:12:45;;;;;;;4.32;3.83;;;;;;;19.79;54.96;96931.28;10476815;28;20044;-47
2022/11/14 23:18:23;;;;;;;4.28;3.88;;;;;;;19.77;54.93;96924.59;10522966;28;20381;-45
2022/11/14 23:24:04;;;;;;;4.10;3.70;;;;;;;19.76;54.94;96910.31;10519420;28;20499;-47
2022/11/14 23:29:42;;;;;;;4.63;4.13;;;;;;;19.75;54.92;96914.91;10519515;28;20499;-44
2022/11/14 23:35:21;;;;;;;4.20;3.80;;;;;;;19.74;54.79;96916.03;10501796;28;20059;-46
2022/11/14 23:41:00;;;;;;;4.32;3.88;;;;;;;19.74;54.63;96915.25;10509503;28;20059;-44
2022/11/14 23:46:38;;;;;;;4.35;3.90;;;;;;;19.72;54.93;96909.38;10513046;28;20052;-45
2022/11/14 23:52:17;;;;;;;4.40;4.00;;;;;;;19.72;55.11;96909.38;10528271;28;20052;-46
2022/11/14 23:57:55;;;;;;;4.07;3.65;;;;;;;19.70;54.82;96906.94;10532742;28;20788;-45
